createdAt,value
2018-03-24T00:01:13.957Z,3.00
2018-03-24T00:03:42.119Z,3.00
2018-03-24T00:06:10.307Z,3.00
2018-03-24T00:08:38.529Z,3.00
2018-03-24T00:11:06.645Z,2.90
2018-03-24T00:13:34.771Z,2.90
2018-03-24T00:16:02.955Z,2.90
2018-03-24T00:18:31.065Z,2.80
2018-03-24T00:20:59.163Z,2.80
2018-03-24T00:23:27.273Z,2.70
2018-03-24T00:25:55.403Z,2.70
2018-03-24T00:28:23.742Z,2.60
2018-03-24T00:30:51.903Z,2.50
2018-03-24T00:33:20.207Z,2.50
2018-03-24T00:35:48.342Z,2.40
2018-03-24T00:38:16.613Z,2.30
2018-03-24T00:40:44.853Z,2.30
2018-03-24T00:43:13.107Z,2.20
2018-03-24T00:45:41.360Z,2.10
2018-03-24T00:48:09.476Z,2.00
2018-03-24T00:50:37.790Z,2.00
2018-03-24T00:53:06.686Z,1.90
2018-03-24T00:55:34.802Z,1.90
2018-03-24T00:58:02.934Z,1.80
2018-03-24T01:00:31.044Z,1.70
2018-03-24T01:02:59.158Z,1.70
2018-03-24T01:05:27.314Z,1.60
2018-03-24T01:07:55.496Z,1.50
2018-03-24T01:10:23.638Z,1.50
2018-03-24T01:12:51.738Z,1.40
2018-03-24T01:15:19.889Z,1.30
2018-03-24T01:17:48.027Z,1.20
2018-03-24T01:20:16.134Z,1.20
2018-03-24T01:22:44.262Z,1.10
2018-03-24T01:25:12.399Z,1.10
2018-03-24T01:27:40.674Z,1.00
2018-03-24T01:30:08.848Z,1.00
2018-03-24T01:32:37.099Z,0.90
2018-03-24T01:35:05.325Z,0.90
2018-03-24T01:37:33.591Z,0.80
2018-03-24T01:40:01.801Z,0.80
2018-03-24T01:42:30.037Z,0.70
2018-03-24T01:44:58.703Z,0.70
2018-03-24T01:47:27.037Z,0.70
2018-03-24T01:49:55.201Z,0.60
2018-03-24T01:52:23.325Z,0.60
2018-03-24T01:54:51.445Z,0.50
2018-03-24T01:57:28.412Z,0.50
2018-03-24T01:59:56.619Z,0.50
2018-03-24T02:02:25.113Z,0.40
2018-03-24T02:04:53.235Z,0.40
2018-03-24T02:07:21.347Z,0.40
2018-03-24T02:09:49.515Z,0.40
2018-03-24T02:12:17.661Z,0.30
2018-03-24T02:14:45.801Z,0.30
2018-03-24T02:17:13.947Z,0.30
2018-03-24T02:19:42.249Z,0.30
2018-03-24T02:22:10.870Z,0.30
2018-03-24T02:27:45.331Z,0.30
2018-03-24T02:30:13.569Z,0.30
2018-03-24T02:32:41.764Z,0.30
2018-03-24T02:35:10.844Z,0.30
2018-03-24T02:37:39.188Z,0.30
2018-03-24T02:40:07.304Z,0.30
2018-03-24T02:42:35.444Z,0.30
2018-03-24T02:45:03.581Z,0.30
2018-03-24T02:47:32.339Z,0.30
2018-03-24T02:50:00.518Z,0.30
2018-03-24T02:52:29.396Z,0.30
2018-03-24T02:54:57.525Z,0.30
2018-03-24T02:57:25.645Z,0.20
2018-03-24T02:59:53.764Z,0.20
2018-03-24T03:02:21.946Z,0.20
2018-03-24T03:04:54.404Z,0.10
2018-03-24T03:07:22.512Z,0.10
2018-03-24T03:09:50.762Z,0.10
2018-03-24T03:12:18.883Z,0.00
2018-03-24T03:14:46.987Z,0.00
2018-03-24T03:17:15.130Z,0.00
2018-03-24T03:19:43.290Z,-0.10
2018-03-24T03:22:11.411Z,-0.10
2018-03-24T03:24:39.525Z,-0.10
2018-03-24T03:27:07.649Z,-0.10
2018-03-24T03:29:35.788Z,-0.20
2018-03-24T03:32:18.799Z,-0.20
2018-03-24T03:34:46.925Z,-0.20
2018-03-24T03:37:15.049Z,-0.30
2018-03-24T03:39:43.221Z,-0.30
2018-03-24T03:42:11.383Z,-0.30
2018-03-24T03:44:39.515Z,-0.30
2018-03-24T03:47:07.655Z,-0.40
2018-03-24T03:49:36.563Z,-0.40
2018-03-24T03:52:04.720Z,-0.40
2018-03-24T03:54:32.870Z,-0.40
2018-03-24T03:57:01.087Z,-0.50
2018-03-24T03:59:29.215Z,-0.50
2018-03-24T04:02:01.624Z,-0.50
2018-03-24T04:04:29.770Z,-0.50
2018-03-24T04:07:02.232Z,-0.50
2018-03-24T04:09:30.451Z,-0.60
2018-03-24T04:11:58.624Z,-0.60
2018-03-24T04:14:27.504Z,-0.60
2018-03-24T04:16:55.632Z,-0.70
2018-03-24T04:19:23.849Z,-0.70
2018-03-24T04:21:51.956Z,-0.70
2018-03-24T04:24:20.096Z,-0.70
2018-03-24T04:26:48.218Z,-0.70
2018-03-24T04:29:16.346Z,-0.80
2018-03-24T04:31:44.495Z,-0.80
2018-03-24T04:34:12.641Z,-0.80
2018-03-24T04:36:40.858Z,-0.80
2018-03-24T04:39:08.977Z,-0.80
2018-03-24T04:41:37.097Z,-0.90
2018-03-24T04:44:05.229Z,-0.90
2018-03-24T04:46:33.593Z,-0.90
2018-03-24T04:49:01.826Z,-0.90
2018-03-24T04:51:34.306Z,-0.90
2018-03-24T04:54:03.216Z,-1.00
2018-03-24T04:56:31.378Z,-1.00
2018-03-24T04:58:59.975Z,-1.00
2018-03-24T05:01:28.108Z,-1.00
2018-03-24T05:03:56.269Z,-1.00
2018-03-24T05:06:24.421Z,-1.00
2018-03-24T05:08:52.551Z,-1.00
2018-03-24T05:11:20.844Z,-1.00
2018-03-24T05:13:53.337Z,-1.00
2018-03-24T05:16:21.478Z,-1.00
2018-03-24T05:18:49.659Z,-1.00
2018-03-24T05:21:18.142Z,-1.00
2018-03-24T05:23:50.887Z,-0.90
2018-03-24T05:26:19.083Z,-0.90
2018-03-24T05:28:47.268Z,-0.80
2018-03-24T05:31:15.413Z,-0.70
2018-03-24T05:33:47.302Z,-0.70
2018-03-24T05:36:24.644Z,-0.60
2018-03-24T05:38:52.800Z,-0.50
2018-03-24T05:41:20.940Z,-0.50
2018-03-24T05:43:49.070Z,-0.40
2018-03-24T05:46:19.348Z,-0.30
2018-03-24T05:48:47.990Z,-0.30
2018-03-24T05:51:16.205Z,-0.20
2018-03-24T05:53:44.622Z,-0.20
2018-03-24T05:56:12.829Z,-0.20
2018-03-24T05:58:40.934Z,-0.10
2018-03-24T06:01:09.137Z,-0.10
2018-03-24T06:03:37.421Z,-0.10
2018-03-24T06:06:05.695Z,-0.10
2018-03-24T06:08:34.226Z,0.00
2018-03-24T06:11:03.179Z,0.00
2018-03-24T06:13:31.294Z,0.10
2018-03-24T06:15:59.418Z,0.10
2018-03-24T06:18:27.567Z,0.20
2018-03-24T06:20:55.669Z,0.30
2018-03-24T06:23:23.769Z,0.40
2018-03-24T06:25:51.884Z,0.50
2018-03-24T06:28:20.021Z,0.60
2018-03-24T06:30:52.644Z,0.70
2018-03-24T06:33:21.441Z,0.80
2018-03-24T06:35:49.581Z,0.90
2018-03-24T06:38:17.780Z,1.00
2018-03-24T06:40:45.912Z,1.10
2018-03-24T06:43:14.836Z,1.20
2018-03-24T06:45:43.652Z,1.30
2018-03-24T06:48:11.786Z,1.40
2018-03-24T06:50:39.935Z,1.40
2018-03-24T06:53:08.066Z,1.50
2018-03-24T06:55:36.214Z,1.60
2018-03-24T06:58:04.338Z,1.70
2018-03-24T07:00:32.609Z,1.80
2018-03-24T07:03:00.750Z,1.90
2018-03-24T07:05:28.892Z,2.00
2018-03-24T07:07:56.997Z,2.00
2018-03-24T07:10:25.118Z,2.10
2018-03-24T07:12:53.344Z,2.20
2018-03-24T07:15:21.466Z,2.30
2018-03-24T07:17:49.593Z,2.40
2018-03-24T07:20:17.712Z,2.40
2018-03-24T07:22:49.637Z,2.50
2018-03-24T07:25:17.748Z,2.60
2018-03-24T07:27:46.640Z,2.70
2018-03-24T07:30:14.761Z,2.80
2018-03-24T07:32:42.910Z,2.90
2018-03-24T07:35:11.399Z,2.90
2018-03-24T07:37:39.515Z,3.00
2018-03-24T07:40:07.625Z,3.10
2018-03-24T07:42:35.823Z,3.20
2018-03-24T07:45:03.957Z,3.20
2018-03-24T07:47:32.861Z,3.30
2018-03-24T07:50:01.057Z,3.40
2018-03-24T07:52:36.141Z,3.50
2018-03-24T07:55:04.285Z,3.50
2018-03-24T07:57:32.395Z,3.60
2018-03-24T08:00:00.579Z,3.70
2018-03-24T08:02:29.505Z,3.70
2018-03-24T08:04:57.620Z,3.80
2018-03-24T08:07:25.723Z,3.90
2018-03-24T08:09:53.841Z,3.90
2018-03-24T08:12:25.404Z,4.00
2018-03-24T08:14:53.558Z,4.10
2018-03-24T08:17:22.386Z,4.20
2018-03-24T08:19:50.510Z,4.30
2018-03-24T08:22:19.730Z,4.40
2018-03-24T08:24:47.856Z,4.40
2018-03-24T08:27:20.334Z,4.50
2018-03-24T08:29:48.484Z,4.60
2018-03-24T08:32:16.580Z,4.70
2018-03-24T08:34:48.874Z,4.80
2018-03-24T08:37:16.972Z,4.90
2018-03-24T08:39:45.084Z,5.00
2018-03-24T08:42:14.716Z,5.10
2018-03-24T08:44:43.861Z,5.10
2018-03-24T08:47:16.175Z,5.20
2018-03-24T08:49:48.185Z,5.30
2018-03-24T08:52:16.323Z,5.40
2018-03-24T08:54:44.445Z,5.50
2018-03-24T08:57:12.574Z,5.60
2018-03-24T08:59:40.695Z,5.70
2018-03-24T09:02:09.389Z,5.70
2018-03-24T09:04:37.502Z,5.80
2018-03-24T09:07:05.725Z,5.90
2018-03-24T09:09:34.262Z,6.00
2018-03-24T09:12:03.310Z,6.10
2018-03-24T09:14:31.739Z,6.20
2018-03-24T09:16:59.850Z,6.30
2018-03-24T09:19:27.968Z,6.50
2018-03-24T09:21:56.095Z,6.60
2018-03-24T09:24:24.233Z,6.70
2018-03-24T09:26:52.360Z,6.80
2018-03-24T09:29:21.286Z,6.90
2018-03-24T09:31:49.395Z,7.10
2018-03-24T09:34:21.339Z,7.20
2018-03-24T09:36:49.474Z,7.30
2018-03-24T09:39:17.616Z,7.40
2018-03-24T09:41:45.754Z,7.60
2018-03-24T09:44:13.898Z,7.70
2018-03-24T09:46:42.022Z,7.90
2018-03-24T09:49:10.141Z,8.00
2018-03-24T09:51:38.233Z,8.20
2018-03-24T09:54:06.359Z,8.40
2018-03-24T09:56:34.503Z,8.60
2018-03-24T09:59:02.636Z,8.80
2018-03-24T10:01:30.813Z,9.10
2018-03-24T10:03:58.971Z,9.30
2018-03-24T10:06:31.053Z,9.60
2018-03-24T10:08:59.188Z,9.80
2018-03-24T10:11:35.652Z,10.00
2018-03-24T10:14:03.818Z,10.30
2018-03-24T10:16:31.945Z,10.50
2018-03-24T10:19:00.397Z,10.70
2018-03-24T10:24:33.389Z,11.00
2018-03-24T10:27:01.519Z,11.10
2018-03-24T10:29:29.627Z,11.20
2018-03-24T10:31:57.807Z,11.30
2018-03-24T10:34:26.061Z,11.40
2018-03-24T10:36:54.309Z,11.50
2018-03-24T10:39:22.560Z,11.70
2018-03-24T10:41:54.680Z,11.80
2018-03-24T10:44:22.957Z,12.00
2018-03-24T10:46:55.032Z,12.10
2018-03-24T10:49:23.277Z,12.30
2018-03-24T10:51:51.502Z,12.40
2018-03-24T10:54:20.442Z,12.50
2018-03-24T10:56:49.210Z,12.70
2018-03-24T10:59:17.406Z,12.90
2018-03-24T11:01:46.362Z,13.00
2018-03-24T11:04:14.522Z,13.10
2018-03-24T11:06:44.057Z,13.30
2018-03-24T11:09:12.932Z,13.40
2018-03-24T11:11:41.082Z,13.50
2018-03-24T11:14:09.200Z,13.70
2018-03-24T11:16:37.326Z,13.90
2018-03-24T11:19:05.480Z,14.10
2018-03-24T11:21:33.661Z,14.20
2018-03-24T11:24:01.814Z,14.40
2018-03-24T11:26:29.950Z,14.50
2018-03-24T11:29:02.596Z,14.60
2018-03-24T11:31:31.501Z,14.70
2018-03-24T11:33:59.649Z,14.80
2018-03-24T11:36:27.836Z,14.90
2018-03-24T11:38:56.762Z,15.00
2018-03-24T11:41:24.975Z,15.20
2018-03-24T11:43:53.126Z,15.40
2018-03-24T11:46:21.257Z,15.60
2018-03-24T11:48:53.221Z,15.70
2018-03-24T11:51:21.465Z,15.90
2018-03-24T11:53:50.325Z,15.90
2018-03-24T11:56:19.312Z,16.00
2018-03-24T11:58:47.925Z,16.00
2018-03-24T12:01:16.124Z,16.00
2018-03-24T12:03:45.013Z,16.10
2018-03-24T12:06:14.943Z,16.10
2018-03-24T12:08:43.837Z,16.20
2018-03-24T12:11:12.723Z,16.20
2018-03-24T12:13:41.617Z,16.30
2018-03-24T12:16:10.573Z,16.30
2018-03-24T12:18:38.780Z,16.40
2018-03-24T12:21:07.814Z,16.50
2018-03-24T12:23:36.111Z,16.60
2018-03-24T12:26:04.241Z,16.60
2018-03-24T12:28:37.824Z,16.70
2018-03-24T12:31:05.969Z,16.80
2018-03-24T12:33:34.067Z,16.80
2018-03-24T12:36:02.266Z,16.90
2018-03-24T12:38:30.369Z,16.90
2018-03-24T12:41:02.711Z,17.00
2018-03-24T12:43:31.550Z,17.10
2018-03-24T12:45:59.671Z,17.20
2018-03-24T12:48:27.826Z,17.30
2018-03-24T12:50:55.960Z,17.50
2018-03-24T12:53:24.151Z,17.60
2018-03-24T12:55:52.324Z,17.70
2018-03-24T12:58:20.471Z,17.80
2018-03-24T13:00:48.592Z,17.80
2018-03-24T13:16:11.724Z,17.90
2018-03-24T13:18:40.644Z,18.00
2018-03-24T13:21:08.773Z,18.20
2018-03-24T13:23:36.917Z,18.50
2018-03-24T13:26:05.057Z,18.80
2018-03-24T13:28:33.167Z,19.20
2018-03-24T13:31:05.869Z,19.50
2018-03-24T13:33:34.859Z,19.90
2018-03-24T13:36:03.009Z,20.20
2018-03-24T13:38:31.297Z,20.60
2018-03-24T13:40:59.822Z,20.90
2018-03-24T13:43:27.948Z,21.30
2018-03-24T13:45:56.690Z,21.50
2018-03-24T13:48:25.479Z,21.80
2018-03-24T13:50:54.465Z,22.00
2018-03-24T13:53:22.705Z,22.40
2018-03-24T13:55:50.833Z,22.60
2018-03-24T13:58:18.980Z,22.90
2018-03-24T14:00:47.873Z,23.00
2018-03-24T14:03:16.008Z,23.10
2018-03-24T14:05:44.127Z,23.40
2018-03-24T14:08:12.303Z,23.50
2018-03-24T14:10:40.416Z,23.60
2018-03-24T14:13:08.520Z,23.70
2018-03-24T14:15:36.662Z,23.70
2018-03-24T14:18:04.763Z,23.80
2018-03-24T14:20:33.648Z,23.90
2018-03-24T14:23:01.800Z,24.00
2018-03-24T14:25:30.006Z,24.10
2018-03-24T14:27:58.886Z,24.10
2018-03-24T14:30:26.990Z,24.20
2018-03-24T14:32:55.136Z,24.00
2018-03-24T14:35:23.248Z,24.00
2018-03-24T14:37:51.384Z,23.90
2018-03-24T14:40:20.323Z,23.90
2018-03-24T14:42:48.456Z,23.80
2018-03-24T14:45:16.577Z,23.70
2018-03-24T14:47:44.688Z,23.80
2018-03-24T14:50:12.849Z,23.90
2018-03-24T14:52:40.993Z,24.00
2018-03-24T14:55:09.123Z,24.00
2018-03-24T14:57:37.284Z,24.10
2018-03-24T15:00:05.440Z,24.30
2018-03-24T15:02:33.583Z,24.40
2018-03-24T15:05:01.707Z,24.40
2018-03-24T15:07:29.875Z,24.40
2018-03-24T15:09:58.847Z,24.40
2018-03-24T15:12:27.020Z,24.50
2018-03-24T15:14:55.098Z,24.30
2018-03-24T15:17:23.228Z,24.30
2018-03-24T15:19:51.399Z,24.40
2018-03-24T15:22:19.534Z,24.40
2018-03-24T15:24:49.250Z,24.40
2018-03-24T15:27:17.447Z,24.40
2018-03-24T15:30:03.384Z,24.10
2018-03-24T15:35:35.746Z,23.10
2018-03-24T15:38:03.900Z,22.60
2018-03-24T15:40:32.042Z,21.90
2018-03-24T15:43:00.214Z,21.30
2018-03-24T15:45:28.334Z,20.50
2018-03-24T15:47:56.464Z,19.80
2018-03-24T15:50:24.630Z,19.10
2018-03-24T15:52:53.020Z,18.50
2018-03-24T15:55:21.181Z,17.90
2018-03-24T15:57:49.320Z,17.40
2018-03-24T16:00:17.449Z,16.80
2018-03-24T16:02:46.341Z,16.40
2018-03-24T16:05:14.495Z,16.00
2018-03-24T16:07:42.667Z,15.60
2018-03-24T16:10:12.003Z,15.20
2018-03-24T16:12:40.969Z,14.90
2018-03-24T16:15:09.114Z,14.50
2018-03-24T16:17:37.242Z,14.30
2018-03-24T16:20:06.186Z,14.00
2018-03-24T16:22:34.375Z,13.70
2018-03-24T16:25:06.336Z,13.50
2018-03-24T16:27:34.620Z,13.40
2018-03-24T16:30:02.838Z,13.20
2018-03-24T16:32:31.011Z,13.10
2018-03-24T16:34:59.138Z,12.90
2018-03-24T16:37:27.308Z,12.70
2018-03-24T16:39:56.316Z,12.60
2018-03-24T16:42:24.447Z,12.40
2018-03-24T16:44:52.654Z,12.30
2018-03-24T16:47:20.791Z,12.10
2018-03-24T16:49:48.950Z,12.00
2018-03-24T16:52:17.190Z,11.90
2018-03-24T16:54:45.376Z,11.70
2018-03-24T16:57:14.384Z,11.60
2018-03-24T16:59:44.297Z,11.40
2018-03-24T17:02:13.297Z,11.20
2018-03-24T17:04:42.194Z,11.10
2018-03-24T17:07:10.378Z,10.90
2018-03-24T17:09:38.498Z,10.80
2018-03-24T17:12:06.635Z,10.60
2018-03-24T17:14:34.769Z,10.50
2018-03-24T17:17:03.660Z,10.30
2018-03-24T17:19:32.687Z,10.20
2018-03-24T17:22:01.328Z,10.10
2018-03-24T17:24:29.784Z,9.90
2018-03-24T17:26:58.839Z,9.80
2018-03-24T17:29:26.977Z,9.60
2018-03-24T17:31:55.131Z,9.50
2018-03-24T17:34:23.645Z,9.40
2018-03-24T17:36:52.561Z,9.20
2018-03-24T17:39:20.690Z,9.10
2018-03-24T17:41:48.893Z,9.00
2018-03-24T17:44:17.798Z,8.90
2018-03-24T17:46:45.949Z,8.70
2018-03-24T17:49:14.091Z,8.60
2018-03-24T17:51:42.221Z,8.50
2018-03-24T17:54:10.356Z,8.40
2018-03-24T17:56:39.326Z,8.30
2018-03-24T17:59:07.624Z,8.10
2018-03-24T18:01:35.828Z,8.00
2018-03-24T18:04:04.727Z,7.90
2018-03-24T18:06:32.852Z,7.90
2018-03-24T18:09:01.068Z,7.70
2018-03-24T18:11:29.222Z,7.70
2018-03-24T18:13:57.326Z,7.60
2018-03-24T18:16:32.030Z,7.50
2018-03-24T18:19:03.554Z,7.50
2018-03-24T18:21:31.805Z,7.40
2018-03-24T18:24:00.550Z,7.30
2018-03-24T18:26:29.809Z,7.20
2018-03-24T18:28:58.063Z,7.10
2018-03-24T18:31:26.292Z,7.00
2018-03-24T18:33:54.653Z,6.90
2018-03-24T18:36:22.831Z,6.80
2018-03-24T18:38:51.305Z,6.70
2018-03-24T18:41:19.502Z,6.60
2018-03-24T18:43:50.148Z,6.50
2018-03-24T18:46:18.481Z,6.40
2018-03-24T18:48:47.308Z,6.30
2018-03-24T18:51:16.211Z,6.30
2018-03-24T18:53:45.970Z,6.20
2018-03-24T18:56:14.099Z,6.20
2018-03-24T18:58:42.247Z,6.10
2018-03-24T19:01:12.459Z,6.00
2018-03-24T19:03:41.250Z,5.90
2018-03-24T19:06:09.430Z,5.80
2018-03-24T19:08:38.148Z,5.80
2018-03-24T19:11:06.613Z,5.70
2018-03-24T19:13:34.850Z,5.60
2018-03-24T19:16:02.988Z,5.50
2018-03-24T19:18:31.191Z,5.40
2018-03-24T19:20:59.325Z,5.30
2018-03-24T19:23:27.600Z,5.20
2018-03-24T19:25:55.889Z,5.10
2018-03-24T19:28:24.165Z,5.00
2018-03-24T19:30:52.318Z,4.90
2018-03-24T19:33:21.266Z,4.80
2018-03-24T19:35:49.404Z,4.70
2018-03-24T19:38:18.684Z,4.60
2018-03-24T19:40:47.392Z,4.50
2018-03-24T19:43:15.562Z,4.40
2018-03-24T19:45:43.712Z,4.30
2018-03-24T19:48:11.868Z,4.20
2018-03-24T19:50:40.039Z,4.10
2018-03-24T19:53:08.236Z,4.00
2018-03-24T19:55:36.453Z,3.90
2018-03-24T19:58:04.660Z,3.80
2018-03-24T20:00:32.835Z,3.80
2018-03-24T20:03:01.013Z,3.70
2018-03-24T20:05:29.140Z,3.60
2018-03-24T20:07:57.320Z,3.50
2018-03-24T20:10:25.483Z,3.40
2018-03-24T20:12:54.369Z,3.30
2018-03-24T20:15:23.271Z,3.30
2018-03-24T20:17:58.300Z,3.20
2018-03-24T20:20:26.438Z,3.10
2018-03-24T20:22:54.603Z,3.00
2018-03-24T20:25:22.725Z,2.90
2018-03-24T20:27:50.895Z,2.90
2018-03-24T20:30:19.038Z,2.80
2018-03-24T20:32:47.173Z,2.80
2018-03-24T20:35:15.303Z,2.70
2018-03-24T20:37:44.308Z,2.60
2018-03-24T20:40:12.484Z,2.60
2018-03-24T20:42:40.625Z,2.50
2018-03-24T20:45:08.826Z,2.40
2018-03-24T20:47:36.994Z,2.40
2018-03-24T20:50:05.955Z,2.30
2018-03-24T20:52:34.128Z,2.30
2018-03-24T20:55:02.357Z,2.20
2018-03-24T20:57:30.682Z,2.10
2018-03-24T20:59:58.857Z,2.10
2018-03-24T21:02:27.044Z,2.00
2018-03-24T21:04:55.706Z,2.00
2018-03-24T21:07:23.998Z,1.90
2018-03-24T21:09:52.912Z,1.90
2018-03-24T21:12:21.945Z,1.80
2018-03-24T21:14:50.067Z,1.80
2018-03-24T21:17:19.027Z,1.80
2018-03-24T21:19:47.160Z,1.70
2018-03-24T21:22:16.448Z,1.70
2018-03-24T21:24:45.412Z,1.70
2018-03-24T21:27:17.611Z,1.70
2018-03-24T21:29:46.749Z,1.60
2018-03-24T21:32:14.961Z,1.60
2018-03-24T21:34:43.261Z,1.60
2018-03-24T21:37:12.466Z,1.50
2018-03-24T21:39:41.611Z,1.50
2018-03-24T21:42:09.890Z,1.50
2018-03-24T21:44:38.079Z,1.50
2018-03-24T21:47:06.262Z,1.40
